sensor_id;sensor_type;location;lat;lon;timestamp;temperature;humidity
13585;DHT22;6863;48.402;9.994;2023-10-19T00:02:05;9.00;99.90
13585;DHT22;6863;48.402;9.994;2023-10-19T00:04:32;9.00;99.90
13585;DHT22;6863;48.402;9.994;2023-10-19T00:07:00;8.90;99.90
13585;DHT22;6863;48.402;9.994;2023-10-19T00:09:26;8.90;99.90
13585;DHT22;6863;48.402;9.994;2023-10-19T00:11:57;8.90;99.90
13585;DHT22;6863;48.402;9.994;2023-10-19T00:14:23;8.80;99.90
13585;DHT22;6863;48.402;9.994;2023-10-19T00:16:51;8.80;99.90
13585;DHT22;6863;48.402;9.994;2023-10-19T00:19:19;8.80;99.90
13585;DHT22;6863;48.402;9.994;2023-10-19T00:21:45;8.80;99.90
13585;DHT22;6863;48.402;9.994;2023-10-19T00:24:21;8.90;99.90
13585;DHT22;6863;48.402;9.994;2023-10-19T00:26:48;8.80;99.90
13585;DHT22;6863;48.402;9.994;2023-10-19T00:29:17;8.90;99.90
13585;DHT22;6863;48.402;9.994;2023-10-19T00:32:05;8.90;99.90
13585;DHT22;6863;48.402;9.994;2023-10-19T00:34:32;9.00;99.90
13585;DHT22;6863;48.402;9.994;2023-10-19T00:36:58;9.10;99.90
13585;DHT22;6863;48.402;9.994;2023-10-19T00:39:35;9.20;99.90
13585;DHT22;6863;48.402;9.994;2023-10-19T00:42:19;9.20;99.90
13585;DHT22;6863;48.402;9.994;2023-10-19T00:44:49;9.20;99.90
13585;DHT22;6863;48.402;9.994;2023-10-19T00:47:15;9.10;99.90
13585;DHT22;6863;48.402;9.994;2023-10-19T00:49:48;9.00;99.90
13585;DHT22;6863;48.402;9.994;2023-10-19T00:52:14;9.00;99.90
13585;DHT22;6863;48.402;9.994;2023-10-19T00:54:49;8.90;99.90
13585;DHT22;6863;48.402;9.994;2023-10-19T00:57:17;8.90;99.90
13585;DHT22;6863;48.402;9.994;2023-10-19T00:59:46;8.80;99.90
13585;DHT22;6863;48.402;9.994;2023-10-19T01:04:40;8.70;99.90
13585;DHT22;6863;48.402;9.994;2023-10-19T01:07:11;8.60;99.90
13585;DHT22;6863;48.402;9.994;2023-10-19T01:09:41;8.70;99.90
13585;DHT22;6863;48.402;9.994;2023-10-19T01:12:09;8.70;99.90
13585;DHT22;6863;48.402;9.994;2023-10-19T01:17:35;8.80;99.90
13585;DHT22;6863;48.402;9.994;2023-10-19T01:20:06;8.90;99.90
13585;DHT22;6863;48.402;9.994;2023-10-19T01:22:47;8.90;99.90
13585;DHT22;6863;48.402;9.994;2023-10-19T01:25:13;9.00;99.90
13585;DHT22;6863;48.402;9.994;2023-10-19T01:27:42;8.80;99.90
13585;DHT22;6863;48.402;9.994;2023-10-19T01:30:08;8.70;99.90
13585;DHT22;6863;48.402;9.994;2023-10-19T01:32:35;8.80;99.90
13585;DHT22;6863;48.402;9.994;2023-10-19T01:35:00;8.80;99.90
13585;DHT22;6863;48.402;9.994;2023-10-19T01:37:26;8.90;99.90
13585;DHT22;6863;48.402;9.994;2023-10-19T01:39:51;8.70;99.90
13585;DHT22;6863;48.402;9.994;2023-10-19T01:42:17;8.80;99.90
13585;DHT22;6863;48.402;9.994;2023-10-19T01:44:43;8.70;99.90
13585;DHT22;6863;48.402;9.994;2023-10-19T01:47:08;8.60;99.90
13585;DHT22;6863;48.402;9.994;2023-10-19T01:49:34;8.70;99.90
13585;DHT22;6863;48.402;9.994;2023-10-19T01:52:02;8.70;99.90
13585;DHT22;6863;48.402;9.994;2023-10-19T01:54:29;8.70;99.90
13585;DHT22;6863;48.402;9.994;2023-10-19T01:56:55;8.70;99.90
13585;DHT22;6863;48.402;9.994;2023-10-19T01:59:27;8.70;99.90
13585;DHT22;6863;48.402;9.994;2023-10-19T02:01:56;8.70;99.90
13585;DHT22;6863;48.402;9.994;2023-10-19T02:04:23;8.70;99.90
13585;DHT22;6863;48.402;9.994;2023-10-19T02:06:49;8.60;99.90
13585;DHT22;6863;48.402;9.994;2023-10-19T02:09:17;8.60;99.90
13585;DHT22;6863;48.402;9.994;2023-10-19T02:11:49;8.60;99.90
13585;DHT22;6863;48.402;9.994;2023-10-19T02:14:16;8.70;99.90
13585;DHT22;6863;48.402;9.994;2023-10-19T02:21:55;8.80;99.90
13585;DHT22;6863;48.402;9.994;2023-10-19T02:24:24;8.70;99.90
13585;DHT22;6863;48.402;9.994;2023-10-19T02:26:52;8.70;99.90
13585;DHT22;6863;48.402;9.994;2023-10-19T02:29:18;8.70;99.90
13585;DHT22;6863;48.402;9.994;2023-10-19T02:31:44;8.70;99.90
13585;DHT22;6863;48.402;9.994;2023-10-19T02:34:11;8.80;99.90
13585;DHT22;6863;48.402;9.994;2023-10-19T02:36:41;8.70;99.90
13585;DHT22;6863;48.402;9.994;2023-10-19T02:39:09;8.60;99.90
13585;DHT22;6863;48.402;9.994;2023-10-19T02:41:41;8.60;99.90
13585;DHT22;6863;48.402;9.994;2023-10-19T02:44:18;8.60;99.90
13585;DHT22;6863;48.402;9.994;2023-10-19T02:46:44;8.50;99.90
13585;DHT22;6863;48.402;9.994;2023-10-19T02:49:12;8.30;99.90
13585;DHT22;6863;48.402;9.994;2023-10-19T02:51:44;8.30;99.90
13585;DHT22;6863;48.402;9.994;2023-10-19T02:54:14;8.20;99.90
13585;DHT22;6863;48.402;9.994;2023-10-19T02:56:47;8.20;99.90
13585;DHT22;6863;48.402;9.994;2023-10-19T02:59:18;8.20;99.90
13585;DHT22;6863;48.402;9.994;2023-10-19T03:01:59;8.20;99.90
13585;DHT22;6863;48.402;9.994;2023-10-19T03:04:37;8.10;99.90
13585;DHT22;6863;48.402;9.994;2023-10-19T03:07:03;8.10;99.90
13585;DHT22;6863;48.402;9.994;2023-10-19T03:09:29;8.10;99.90
13585;DHT22;6863;48.402;9.994;2023-10-19T03:11:56;8.20;99.90
13585;DHT22;6863;48.402;9.994;2023-10-19T03:14:25;8.20;99.90
13585;DHT22;6863;48.402;9.994;2023-10-19T03:16:54;8.20;99.90
13585;DHT22;6863;48.402;9.994;2023-10-19T03:19:23;8.20;99.90
13585;DHT22;6863;48.402;9.994;2023-10-19T03:21:53;8.10;99.90
13585;DHT22;6863;48.402;9.994;2023-10-19T03:24:20;8.20;99.90
13585;DHT22;6863;48.402;9.994;2023-10-19T03:27:04;8.20;99.90
13585;DHT22;6863;48.402;9.994;2023-10-19T03:29:49;8.10;99.90
13585;DHT22;6863;48.402;9.994;2023-10-19T03:32:25;8.00;99.90
13585;DHT22;6863;48.402;9.994;2023-10-19T03:34:58;8.00;99.90
13585;DHT22;6863;48.402;9.994;2023-10-19T03:37:28;7.90;99.90
13585;DHT22;6863;48.402;9.994;2023-10-19T03:40:00;8.00;99.90
13585;DHT22;6863;48.402;9.994;2023-10-19T03:42:31;7.90;99.90
13585;DHT22;6863;48.402;9.994;2023-10-19T03:45:09;7.90;99.90
13585;DHT22;6863;48.402;9.994;2023-10-19T03:47:39;8.00;99.90
13585;DHT22;6863;48.402;9.994;2023-10-19T03:50:05;8.00;99.90
13585;DHT22;6863;48.402;9.994;2023-10-19T03:52:34;8.00;99.90
13585;DHT22;6863;48.402;9.994;2023-10-19T03:55:03;8.00;99.90
13585;DHT22;6863;48.402;9.994;2023-10-19T03:57:31;8.00;99.90
13585;DHT22;6863;48.402;9.994;2023-10-19T03:59:56;8.10;99.90
13585;DHT22;6863;48.402;9.994;2023-10-19T04:02:23;8.20;99.90
13585;DHT22;6863;48.402;9.994;2023-10-19T04:04:54;8.20;99.90
13585;DHT22;6863;48.402;9.994;2023-10-19T04:07:21;8.40;99.90
13585;DHT22;6863;48.402;9.994;2023-10-19T04:09:48;8.40;99.90
13585;DHT22;6863;48.402;9.994;2023-10-19T04:12:26;8.40;99.90
13585;DHT22;6863;48.402;9.994;2023-10-19T04:14:54;8.50;99.90
13585;DHT22;6863;48.402;9.994;2023-10-19T04:17:21;8.60;99.90
13585;DHT22;6863;48.402;9.994;2023-10-19T04:19:47;8.60;99.90
13585;DHT22;6863;48.402;9.994;2023-10-19T04:22:20;8.60;99.90
13585;DHT22;6863;48.402;9.994;2023-10-19T04:24:52;8.60;99.90
13585;DHT22;6863;48.402;9.994;2023-10-19T04:27:18;8.60;99.90
13585;DHT22;6863;48.402;9.994;2023-10-19T04:29:49;8.60;99.90
13585;DHT22;6863;48.402;9.994;2023-10-19T04:32:15;8.50;99.90
13585;DHT22;6863;48.402;9.994;2023-10-19T04:34:48;8.50;99.90
13585;DHT22;6863;48.402;9.994;2023-10-19T04:37:14;8.50;99.90
13585;DHT22;6863;48.402;9.994;2023-10-19T04:39:44;8.50;99.90
13585;DHT22;6863;48.402;9.994;2023-10-19T04:42:09;8.60;99.90
13585;DHT22;6863;48.402;9.994;2023-10-19T04:44:35;8.70;99.90
13585;DHT22;6863;48.402;9.994;2023-10-19T04:47:00;8.80;99.90
13585;DHT22;6863;48.402;9.994;2023-10-19T04:49:26;8.80;99.90
13585;DHT22;6863;48.402;9.994;2023-10-19T04:51:52;8.80;99.90
13585;DHT22;6863;48.402;9.994;2023-10-19T04:54:17;8.70;99.90
13585;DHT22;6863;48.402;9.994;2023-10-19T04:56:43;8.60;99.90
13585;DHT22;6863;48.402;9.994;2023-10-19T04:59:08;8.60;99.90
13585;DHT22;6863;48.402;9.994;2023-10-19T05:01:34;8.60;99.90
13585;DHT22;6863;48.402;9.994;2023-10-19T05:04:00;8.50;99.90
13585;DHT22;6863;48.402;9.994;2023-10-19T05:06:26;8.50;99.90
13585;DHT22;6863;48.402;9.994;2023-10-19T05:08:51;8.50;99.90
13585;DHT22;6863;48.402;9.994;2023-10-19T05:11:20;8.50;99.90
13585;DHT22;6863;48.402;9.994;2023-10-19T05:13:46;8.50;99.90
13585;DHT22;6863;48.402;9.994;2023-10-19T05:16:11;8.60;99.90
13585;DHT22;6863;48.402;9.994;2023-10-19T05:18:37;8.60;99.90
13585;DHT22;6863;48.402;9.994;2023-10-19T05:21:04;8.60;99.90
13585;DHT22;6863;48.402;9.994;2023-10-19T05:23:30;8.60;99.90
13585;DHT22;6863;48.402;9.994;2023-10-19T05:26:03;8.70;99.90
13585;DHT22;6863;48.402;9.994;2023-10-19T05:28:30;8.70;99.90
13585;DHT22;6863;48.402;9.994;2023-10-19T05:30:55;8.70;99.90
13585;DHT22;6863;48.402;9.994;2023-10-19T05:33:21;8.80;99.90
13585;DHT22;6863;48.402;9.994;2023-10-19T05:35:49;8.80;99.90
13585;DHT22;6863;48.402;9.994;2023-10-19T05:38:15;8.70;99.90
13585;DHT22;6863;48.402;9.994;2023-10-19T05:40:41;8.70;99.90
13585;DHT22;6863;48.402;9.994;2023-10-19T05:43:08;8.70;99.90
13585;DHT22;6863;48.402;9.994;2023-10-19T05:45:34;8.70;99.90
13585;DHT22;6863;48.402;9.994;2023-10-19T05:48:01;8.80;99.90
13585;DHT22;6863;48.402;9.994;2023-10-19T05:50:29;8.80;99.90
13585;DHT22;6863;48.402;9.994;2023-10-19T05:52:55;8.80;99.90
13585;DHT22;6863;48.402;9.994;2023-10-19T05:55:21;8.90;99.90
13585;DHT22;6863;48.402;9.994;2023-10-19T05:57:47;9.00;99.90
13585;DHT22;6863;48.402;9.994;2023-10-19T06:00:12;9.10;99.90
13585;DHT22;6863;48.402;9.994;2023-10-19T06:02:48;9.10;99.90
13585;DHT22;6863;48.402;9.994;2023-10-19T06:05:18;9.10;99.90
13585;DHT22;6863;48.402;9.994;2023-10-19T06:07:45;9.10;99.90
13585;DHT22;6863;48.402;9.994;2023-10-19T06:10:20;9.10;99.90
13585;DHT22;6863;48.402;9.994;2023-10-19T06:12:51;9.10;99.90
13585;DHT22;6863;48.402;9.994;2023-10-19T06:15:19;9.20;99.90
13585;DHT22;6863;48.402;9.994;2023-10-19T06:17:47;9.30;99.90
13585;DHT22;6863;48.402;9.994;2023-10-19T06:20:14;9.40;99.90
13585;DHT22;6863;48.402;9.994;2023-10-19T06:22:58;9.40;99.90
13585;DHT22;6863;48.402;9.994;2023-10-19T06:25:31;9.50;99.90
13585;DHT22;6863;48.402;9.994;2023-10-19T06:27:57;9.60;99.90
13585;DHT22;6863;48.402;9.994;2023-10-19T06:30:23;9.70;99.90
13585;DHT22;6863;48.402;9.994;2023-10-19T06:32:51;9.80;99.90
13585;DHT22;6863;48.402;9.994;2023-10-19T06:35:18;9.90;99.90
13585;DHT22;6863;48.402;9.994;2023-10-19T06:37:44;9.90;99.90
13585;DHT22;6863;48.402;9.994;2023-10-19T06:40:10;9.90;99.90
13585;DHT22;6863;48.402;9.994;2023-10-19T06:42:38;9.90;99.90
13585;DHT22;6863;48.402;9.994;2023-10-19T06:45:04;9.90;99.90
13585;DHT22;6863;48.402;9.994;2023-10-19T06:47:29;10.00;99.90
13585;DHT22;6863;48.402;9.994;2023-10-19T06:49:55;10.00;99.90
13585;DHT22;6863;48.402;9.994;2023-10-19T06:52:22;10.10;99.90
13585;DHT22;6863;48.402;9.994;2023-10-19T06:54:47;10.00;99.90
13585;DHT22;6863;48.402;9.994;2023-10-19T06:57:13;9.90;99.90
13585;DHT22;6863;48.402;9.994;2023-10-19T06:59:38;9.90;99.90
13585;DHT22;6863;48.402;9.994;2023-10-19T07:02:04;9.90;99.90
13585;DHT22;6863;48.402;9.994;2023-10-19T07:04:33;9.90;99.90
13585;DHT22;6863;48.402;9.994;2023-10-19T07:06:58;10.00;99.90
13585;DHT22;6863;48.402;9.994;2023-10-19T07:09:26;10.00;99.90
13585;DHT22;6863;48.402;9.994;2023-10-19T07:11:51;10.10;99.90
13585;DHT22;6863;48.402;9.994;2023-10-19T07:14:20;10.30;99.90
13585;DHT22;6863;48.402;9.994;2023-10-19T07:16:48;10.40;99.90
13585;DHT22;6863;48.402;9.994;2023-10-19T07:19:14;10.50;99.90
13585;DHT22;6863;48.402;9.994;2023-10-19T07:21:40;10.40;99.90
13585;DHT22;6863;48.402;9.994;2023-10-19T07:24:08;10.30;99.90
13585;DHT22;6863;48.402;9.994;2023-10-19T07:26:36;10.30;99.90
13585;DHT22;6863;48.402;9.994;2023-10-19T07:29:16;10.50;99.90
13585;DHT22;6863;48.402;9.994;2023-10-19T07:31:42;10.70;99.90
13585;DHT22;6863;48.402;9.994;2023-10-19T07:34:08;10.80;99.90
13585;DHT22;6863;48.402;9.994;2023-10-19T07:36:38;10.60;99.90
13585;DHT22;6863;48.402;9.994;2023-10-19T07:39:03;10.50;99.90
13585;DHT22;6863;48.402;9.994;2023-10-19T07:41:30;10.60;99.90
13585;DHT22;6863;48.402;9.994;2023-10-19T07:44:01;10.40;99.90
13585;DHT22;6863;48.402;9.994;2023-10-19T07:46:27;10.30;99.90
13585;DHT22;6863;48.402;9.994;2023-10-19T07:48:54;10.40;99.90
13585;DHT22;6863;48.402;9.994;2023-10-19T07:51:20;10.40;99.90
13585;DHT22;6863;48.402;9.994;2023-10-19T07:53:45;10.40;99.90
13585;DHT22;6863;48.402;9.994;2023-10-19T07:56:11;10.40;99.90
13585;DHT22;6863;48.402;9.994;2023-10-19T07:58:37;10.30;99.90
13585;DHT22;6863;48.402;9.994;2023-10-19T08:01:02;10.30;99.90
13585;DHT22;6863;48.402;9.994;2023-10-19T08:03:28;10.30;99.90
13585;DHT22;6863;48.402;9.994;2023-10-19T08:05:54;10.30;99.90
13585;DHT22;6863;48.402;9.994;2023-10-19T08:08:19;10.40;99.90
13585;DHT22;6863;48.402;9.994;2023-10-19T08:10:45;10.40;99.90
13585;DHT22;6863;48.402;9.994;2023-10-19T08:13:11;10.50;99.90
13585;DHT22;6863;48.402;9.994;2023-10-19T08:15:38;10.60;99.90
13585;DHT22;6863;48.402;9.994;2023-10-19T08:18:04;10.70;99.90
13585;DHT22;6863;48.402;9.994;2023-10-19T08:20:31;10.70;99.90
13585;DHT22;6863;48.402;9.994;2023-10-19T08:22:57;10.50;99.90
13585;DHT22;6863;48.402;9.994;2023-10-19T08:25:23;10.50;99.90
13585;DHT22;6863;48.402;9.994;2023-10-19T08:27:49;10.40;99.90
13585;DHT22;6863;48.402;9.994;2023-10-19T08:30:20;10.30;99.90
13585;DHT22;6863;48.402;9.994;2023-10-19T08:32:50;10.30;99.90
13585;DHT22;6863;48.402;9.994;2023-10-19T08:35:20;10.30;99.90
13585;DHT22;6863;48.402;9.994;2023-10-19T08:37:50;10.30;99.90
13585;DHT22;6863;48.402;9.994;2023-10-19T08:40:15;10.40;99.90
13585;DHT22;6863;48.402;9.994;2023-10-19T08:42:43;10.50;99.90
13585;DHT22;6863;48.402;9.994;2023-10-19T08:45:10;10.70;99.90
13585;DHT22;6863;48.402;9.994;2023-10-19T08:47:44;10.90;99.90
13585;DHT22;6863;48.402;9.994;2023-10-19T08:50:14;11.10;99.90
13585;DHT22;6863;48.402;9.994;2023-10-19T08:52:41;11.20;99.90
13585;DHT22;6863;48.402;9.994;2023-10-19T08:55:08;11.30;99.90
13585;DHT22;6863;48.402;9.994;2023-10-19T08:57:36;11.20;99.90
13585;DHT22;6863;48.402;9.994;2023-10-19T09:00:04;11.20;99.90
13585;DHT22;6863;48.402;9.994;2023-10-19T09:02:32;11.20;99.90
13585;DHT22;6863;48.402;9.994;2023-10-19T09:04:58;11.20;99.90
13585;DHT22;6863;48.402;9.994;2023-10-19T09:07:25;11.20;99.90
13585;DHT22;6863;48.402;9.994;2023-10-19T09:09:56;11.20;99.90
13585;DHT22;6863;48.402;9.994;2023-10-19T09:12:22;11.30;99.90
13585;DHT22;6863;48.402;9.994;2023-10-19T09:14:48;11.70;99.90
13585;DHT22;6863;48.402;9.994;2023-10-19T09:17:16;11.90;99.90
13585;DHT22;6863;48.402;9.994;2023-10-19T09:19:52;12.00;99.90
13585;DHT22;6863;48.402;9.994;2023-10-19T09:22:18;12.10;99.90
13585;DHT22;6863;48.402;9.994;2023-10-19T09:24:49;12.20;99.90
13585;DHT22;6863;48.402;9.994;2023-10-19T09:27:19;12.20;99.90
13585;DHT22;6863;48.402;9.994;2023-10-19T09:29:45;12.30;99.90
13585;DHT22;6863;48.402;9.994;2023-10-19T09:32:10;12.40;99.90
13585;DHT22;6863;48.402;9.994;2023-10-19T09:34:39;12.40;99.90
13585;DHT22;6863;48.402;9.994;2023-10-19T09:37:09;12.50;99.90
13585;DHT22;6863;48.402;9.994;2023-10-19T09:39:35;12.70;99.90
13585;DHT22;6863;48.402;9.994;2023-10-19T09:42:06;12.50;99.90
13585;DHT22;6863;48.402;9.994;2023-10-19T09:44:41;12.40;99.90
13585;DHT22;6863;48.402;9.994;2023-10-19T09:47:13;12.40;99.90
13585;DHT22;6863;48.402;9.994;2023-10-19T09:49:41;12.40;99.90
13585;DHT22;6863;48.402;9.994;2023-10-19T09:52:09;12.40;99.90
13585;DHT22;6863;48.402;9.994;2023-10-19T09:57:39;12.60;99.90
13585;DHT22;6863;48.402;9.994;2023-10-19T10:00:08;12.70;99.90
13585;DHT22;6863;48.402;9.994;2023-10-19T10:02:42;12.80;99.90
13585;DHT22;6863;48.402;9.994;2023-10-19T10:10:50;13.40;99.90
13585;DHT22;6863;48.402;9.994;2023-10-19T10:15:57;13.40;99.90
13585;DHT22;6863;48.402;9.994;2023-10-19T10:20:48;13.20;99.90
13585;DHT22;6863;48.402;9.994;2023-10-19T10:23:18;13.20;99.90
13585;DHT22;6863;48.402;9.994;2023-10-19T10:25:47;13.00;99.90
13585;DHT22;6863;48.402;9.994;2023-10-19T10:28:17;13.00;99.90
13585;DHT22;6863;48.402;9.994;2023-10-19T10:31:21;13.00;99.90
13585;DHT22;6863;48.402;9.994;2023-10-19T10:33:51;13.00;99.90
13585;DHT22;6863;48.402;9.994;2023-10-19T10:36:20;13.10;99.90
13585;DHT22;6863;48.402;9.994;2023-10-19T10:38:51;13.20;99.90
13585;DHT22;6863;48.402;9.994;2023-10-19T10:41:23;13.30;99.90
13585;DHT22;6863;48.402;9.994;2023-10-19T10:43:57;13.40;99.90
13585;DHT22;6863;48.402;9.994;2023-10-19T10:46:24;13.50;99.90
13585;DHT22;6863;48.402;9.994;2023-10-19T10:48:51;13.40;99.90
13585;DHT22;6863;48.402;9.994;2023-10-19T10:51:24;13.50;99.90
13585;DHT22;6863;48.402;9.994;2023-10-19T10:53:54;13.60;99.90
13585;DHT22;6863;48.402;9.994;2023-10-19T10:56:21;13.70;99.90
13585;DHT22;6863;48.402;9.994;2023-10-19T10:58:47;14.00;99.90
13585;DHT22;6863;48.402;9.994;2023-10-19T11:01:14;14.10;99.90
13585;DHT22;6863;48.402;9.994;2023-10-19T11:03:43;14.40;99.90
13585;DHT22;6863;48.402;9.994;2023-10-19T11:06:11;14.50;99.90
13585;DHT22;6863;48.402;9.994;2023-10-19T11:08:41;14.60;99.90
13585;DHT22;6863;48.402;9.994;2023-10-19T11:11:08;14.70;99.90
13585;DHT22;6863;48.402;9.994;2023-10-19T11:13:38;14.70;99.90
13585;DHT22;6863;48.402;9.994;2023-10-19T11:16:05;14.60;99.90
13585;DHT22;6863;48.402;9.994;2023-10-19T11:21:09;15.00;99.90
13585;DHT22;6863;48.402;9.994;2023-10-19T11:26:01;15.20;99.90
13585;DHT22;6863;48.402;9.994;2023-10-19T11:28:28;15.30;99.90
13585;DHT22;6863;48.402;9.994;2023-10-19T11:30:55;15.40;99.90
13585;DHT22;6863;48.402;9.994;2023-10-19T11:33:35;15.60;99.90
13585;DHT22;6863;48.402;9.994;2023-10-19T11:36:02;15.60;99.90
13585;DHT22;6863;48.402;9.994;2023-10-19T11:38:27;15.40;99.90
13585;DHT22;6863;48.402;9.994;2023-10-19T11:40:53;15.50;99.90
13585;DHT22;6863;48.402;9.994;2023-10-19T11:43:19;15.80;99.90
13585;DHT22;6863;48.402;9.994;2023-10-19T11:45:44;15.80;99.90
13585;DHT22;6863;48.402;9.994;2023-10-19T11:48:11;15.70;99.90
13585;DHT22;6863;48.402;9.994;2023-10-19T11:50:37;15.70;99.90
13585;DHT22;6863;48.402;9.994;2023-10-19T11:53:02;15.70;99.90
13585;DHT22;6863;48.402;9.994;2023-10-19T11:55:28;15.40;99.90
13585;DHT22;6863;48.402;9.994;2023-10-19T11:57:54;15.10;99.90
13585;DHT22;6863;48.402;9.994;2023-10-19T12:00:20;15.00;99.90
13585;DHT22;6863;48.402;9.994;2023-10-19T12:02:47;15.20;99.90
13585;DHT22;6863;48.402;9.994;2023-10-19T12:05:13;15.30;99.90
13585;DHT22;6863;48.402;9.994;2023-10-19T12:07:39;15.10;99.90
13585;DHT22;6863;48.402;9.994;2023-10-19T12:10:07;15.20;99.90
13585;DHT22;6863;48.402;9.994;2023-10-19T12:12:36;15.90;99.90
13585;DHT22;6863;48.402;9.994;2023-10-19T12:15:03;16.70;99.90
13585;DHT22;6863;48.402;9.994;2023-10-19T12:17:31;17.40;99.90
13585;DHT22;6863;48.402;9.994;2023-10-19T12:19:56;17.80;99.90
13585;DHT22;6863;48.402;9.994;2023-10-19T12:22:22;18.00;99.90
13585;DHT22;6863;48.402;9.994;2023-10-19T12:24:49;19.00;99.90
13585;DHT22;6863;48.402;9.994;2023-10-19T12:27:17;20.00;97.70
13585;DHT22;6863;48.402;9.994;2023-10-19T12:29:43;20.70;95.90
13585;DHT22;6863;48.402;9.994;2023-10-19T12:32:09;21.60;94.70
13585;DHT22;6863;48.402;9.994;2023-10-19T12:34:35;22.30;92.50
13585;DHT22;6863;48.402;9.994;2023-10-19T12:37:00;22.90;91.60
13585;DHT22;6863;48.402;9.994;2023-10-19T12:39:27;22.90;90.30
13585;DHT22;6863;48.402;9.994;2023-10-19T12:42:10;22.50;90.20
13585;DHT22;6863;48.402;9.994;2023-10-19T12:44:36;22.20;90.50
13585;DHT22;6863;48.402;9.994;2023-10-19T12:47:13;22.10;90.90
13585;DHT22;6863;48.402;9.994;2023-10-19T12:49:40;21.40;91.70
13585;DHT22;6863;48.402;9.994;2023-10-19T12:52:06;20.80;92.60
13585;DHT22;6863;48.402;9.994;2023-10-19T12:54:36;20.50;93.10
13585;DHT22;6863;48.402;9.994;2023-10-19T12:57:03;20.30;93.30
13585;DHT22;6863;48.402;9.994;2023-10-19T12:59:37;19.90;94.20
13585;DHT22;6863;48.402;9.994;2023-10-19T13:02:04;19.30;95.40
13585;DHT22;6863;48.402;9.994;2023-10-19T13:04:29;19.20;95.90
13585;DHT22;6863;48.402;9.994;2023-10-19T13:06:56;18.80;96.70
13585;DHT22;6863;48.402;9.994;2023-10-19T13:09:25;18.50;97.40
13585;DHT22;6863;48.402;9.994;2023-10-19T13:11:59;18.40;97.80
13585;DHT22;6863;48.402;9.994;2023-10-19T13:14:26;18.00;98.80
13585;DHT22;6863;48.402;9.994;2023-10-19T13:16:53;17.80;99.50
13585;DHT22;6863;48.402;9.994;2023-10-19T13:19:22;17.80;99.50
13585;DHT22;6863;48.402;9.994;2023-10-19T13:21:52;17.80;99.40
13585;DHT22;6863;48.402;9.994;2023-10-19T13:24:20;17.60;99.70
13585;DHT22;6863;48.402;9.994;2023-10-19T13:26:47;17.50;99.90
13585;DHT22;6863;48.402;9.994;2023-10-19T13:29:14;17.40;99.90
13585;DHT22;6863;48.402;9.994;2023-10-19T13:31:43;17.30;99.90
13585;DHT22;6863;48.402;9.994;2023-10-19T13:34:15;17.20;99.90
13585;DHT22;6863;48.402;9.994;2023-10-19T13:36:40;17.10;99.90
13585;DHT22;6863;48.402;9.994;2023-10-19T13:39:06;17.10;99.90
13585;DHT22;6863;48.402;9.994;2023-10-19T13:41:38;17.00;99.90
13585;DHT22;6863;48.402;9.994;2023-10-19T13:44:03;16.90;99.90
13585;DHT22;6863;48.402;9.994;2023-10-19T13:46:30;16.90;99.90
13585;DHT22;6863;48.402;9.994;2023-10-19T13:48:56;16.90;99.90
13585;DHT22;6863;48.402;9.994;2023-10-19T13:51:22;16.80;99.90
13585;DHT22;6863;48.402;9.994;2023-10-19T13:53:48;16.70;99.90
13585;DHT22;6863;48.402;9.994;2023-10-19T13:56:15;16.70;99.90
13585;DHT22;6863;48.402;9.994;2023-10-19T13:58:40;16.70;99.90
13585;DHT22;6863;48.402;9.994;2023-10-19T14:01:07;16.80;99.90
13585;DHT22;6863;48.402;9.994;2023-10-19T14:03:34;16.80;99.90
13585;DHT22;6863;48.402;9.994;2023-10-19T14:06:00;16.60;99.90
13585;DHT22;6863;48.402;9.994;2023-10-19T14:08:25;16.50;99.90
13585;DHT22;6863;48.402;9.994;2023-10-19T14:10:51;16.60;99.90
13585;DHT22;6863;48.402;9.994;2023-10-19T14:13:17;16.60;99.90
13585;DHT22;6863;48.402;9.994;2023-10-19T14:15:43;16.80;99.90
13585;DHT22;6863;48.402;9.994;2023-10-19T14:18:09;17.00;99.90
13585;DHT22;6863;48.402;9.994;2023-10-19T14:20:36;17.10;99.90
13585;DHT22;6863;48.402;9.994;2023-10-19T14:23:04;17.40;99.90
13585;DHT22;6863;48.402;9.994;2023-10-19T14:25:30;17.60;99.90
13585;DHT22;6863;48.402;9.994;2023-10-19T14:27:56;17.50;99.90
13585;DHT22;6863;48.402;9.994;2023-10-19T14:30:29;17.50;99.90
13585;DHT22;6863;48.402;9.994;2023-10-19T14:32:55;17.50;99.90
13585;DHT22;6863;48.402;9.994;2023-10-19T14:35:22;17.40;99.90
13585;DHT22;6863;48.402;9.994;2023-10-19T14:37:50;17.40;99.90
13585;DHT22;6863;48.402;9.994;2023-10-19T14:40:17;17.30;99.90
13585;DHT22;6863;48.402;9.994;2023-10-19T14:42:47;17.30;99.90
13585;DHT22;6863;48.402;9.994;2023-10-19T14:45:14;17.20;99.90
13585;DHT22;6863;48.402;9.994;2023-10-19T14:47:42;17.20;99.90
13585;DHT22;6863;48.402;9.994;2023-10-19T14:50:12;17.00;99.90
13585;DHT22;6863;48.402;9.994;2023-10-19T14:52:43;17.00;99.90
13585;DHT22;6863;48.402;9.994;2023-10-19T14:55:09;16.80;99.90
13585;DHT22;6863;48.402;9.994;2023-10-19T14:57:36;16.70;99.90
13585;DHT22;6863;48.402;9.994;2023-10-19T15:00:09;16.80;99.90
13585;DHT22;6863;48.402;9.994;2023-10-19T15:02:45;16.80;99.90
13585;DHT22;6863;48.402;9.994;2023-10-19T15:05:11;16.90;99.90
13585;DHT22;6863;48.402;9.994;2023-10-19T15:07:48;16.90;99.90
13585;DHT22;6863;48.402;9.994;2023-10-19T15:10:26;16.80;99.90
13585;DHT22;6863;48.402;9.994;2023-10-19T15:12:53;16.80;99.90
13585;DHT22;6863;48.402;9.994;2023-10-19T15:15:19;16.70;99.90
13585;DHT22;6863;48.402;9.994;2023-10-19T15:17:47;16.60;99.90
13585;DHT22;6863;48.402;9.994;2023-10-19T15:20:14;16.50;99.90
13585;DHT22;6863;48.402;9.994;2023-10-19T15:22:41;16.50;99.90
13585;DHT22;6863;48.402;9.994;2023-10-19T15:25:07;16.50;99.90
13585;DHT22;6863;48.402;9.994;2023-10-19T15:27:34;16.40;99.90
13585;DHT22;6863;48.402;9.994;2023-10-19T15:30:00;16.40;99.90
13585;DHT22;6863;48.402;9.994;2023-10-19T15:32:25;16.50;99.90
13585;DHT22;6863;48.402;9.994;2023-10-19T15:34:51;16.60;99.90
13585;DHT22;6863;48.402;9.994;2023-10-19T15:37:18;16.60;99.90
13585;DHT22;6863;48.402;9.994;2023-10-19T15:39:44;16.60;99.90
13585;DHT22;6863;48.402;9.994;2023-10-19T15:42:10;16.60;99.90
13585;DHT22;6863;48.402;9.994;2023-10-19T15:44:39;16.70;99.90
13585;DHT22;6863;48.402;9.994;2023-10-19T15:47:05;16.60;99.90
13585;DHT22;6863;48.402;9.994;2023-10-19T15:49:55;16.30;99.90
13585;DHT22;6863;48.402;9.994;2023-10-19T15:52:25;15.90;99.90
13585;DHT22;6863;48.402;9.994;2023-10-19T15:54:53;15.60;99.90
13585;DHT22;6863;48.402;9.994;2023-10-19T15:57:19;15.40;99.90
13585;DHT22;6863;48.402;9.994;2023-10-19T15:59:46;15.30;99.90
13585;DHT22;6863;48.402;9.994;2023-10-19T16:02:14;15.20;99.90
13585;DHT22;6863;48.402;9.994;2023-10-19T16:04:41;15.10;99.90
13585;DHT22;6863;48.402;9.994;2023-10-19T16:07:12;15.00;99.90
13585;DHT22;6863;48.402;9.994;2023-10-19T16:09:39;14.90;99.90
13585;DHT22;6863;48.402;9.994;2023-10-19T16:12:05;14.90;99.90
13585;DHT22;6863;48.402;9.994;2023-10-19T16:14:42;14.70;99.90
13585;DHT22;6863;48.402;9.994;2023-10-19T16:17:08;14.60;99.90
13585;DHT22;6863;48.402;9.994;2023-10-19T16:19:35;14.50;99.90
13585;DHT22;6863;48.402;9.994;2023-10-19T16:22:00;14.50;99.90
13585;DHT22;6863;48.402;9.994;2023-10-19T16:24:26;14.30;99.90
13585;DHT22;6863;48.402;9.994;2023-10-19T16:26:53;14.30;99.90
13585;DHT22;6863;48.402;9.994;2023-10-19T16:29:22;14.20;99.90